createdAt,value
2022-12-31T00:01:03.545Z,2.20
2022-12-31T00:03:31.081Z,2.30
2022-12-31T00:05:58.662Z,2.10
2022-12-31T00:08:26.199Z,2.00
2022-12-31T00:10:55.445Z,2.00
2022-12-31T00:13:22.901Z,1.63
2022-12-31T00:15:50.373Z,2.10
2022-12-31T00:18:17.879Z,2.10
2022-12-31T00:20:45.331Z,2.20
2022-12-31T00:23:12.881Z,2.20
2022-12-31T00:25:40.309Z,2.27
2022-12-31T00:28:09.249Z,2.20
2022-12-31T00:30:37.460Z,2.53
2022-12-31T00:33:04.985Z,2.40
2022-12-31T00:35:34.580Z,2.10
2022-12-31T00:38:02.021Z,2.13
2022-12-31T00:40:29.696Z,1.70
2022-12-31T00:42:57.163Z,1.90
2022-12-31T00:45:26.067Z,1.90
2022-12-31T00:47:53.575Z,1.83
2022-12-31T00:50:21.125Z,2.20
2022-12-31T00:52:48.629Z,1.83
2022-12-31T00:55:16.375Z,2.33
2022-12-31T00:57:43.932Z,2.00
2022-12-31T01:00:12.838Z,2.37
2022-12-31T01:02:41.780Z,2.60
2022-12-31T01:05:09.776Z,2.60
2022-12-31T01:07:38.487Z,2.43
2022-12-31T01:10:07.044Z,2.43
2022-12-31T01:12:34.700Z,2.50
2022-12-31T01:15:02.219Z,2.30
2022-12-31T01:17:29.874Z,2.50
2022-12-31T01:19:58.672Z,2.07
2022-12-31T01:22:26.220Z,2.00
2022-12-31T01:24:53.757Z,1.80
2022-12-31T01:27:21.445Z,1.50
2022-12-31T01:29:49.028Z,1.67
2022-12-31T01:32:16.615Z,1.60
2022-12-31T01:34:44.159Z,1.70
2022-12-31T01:37:12.998Z,1.60
2022-12-31T01:39:40.508Z,1.50
2022-12-31T01:42:11.469Z,1.30
2022-12-31T01:44:49.942Z,1.33
2022-12-31T01:47:20.826Z,1.30
2022-12-31T01:49:50.813Z,1.20
2022-12-31T01:52:23.469Z,1.30
2022-12-31T01:54:54.537Z,1.10
2022-12-31T01:57:22.850Z,1.30
2022-12-31T01:59:50.928Z,1.40
2022-12-31T02:02:18.798Z,1.20
2022-12-31T02:04:46.761Z,1.30
2022-12-31T02:07:14.286Z,1.10
2022-12-31T02:09:43.703Z,1.00
2022-12-31T02:12:11.581Z,1.03
2022-12-31T02:14:41.239Z,1.10
2022-12-31T02:17:12.590Z,1.10
2022-12-31T02:20:12.062Z,1.00
2022-12-31T02:22:52.965Z,1.00
2022-12-31T02:25:34.774Z,1.27
2022-12-31T02:28:14.407Z,1.00
2022-12-31T02:30:44.399Z,0.83
2022-12-31T02:33:15.080Z,0.90
2022-12-31T02:35:47.853Z,1.00
2022-12-31T02:38:17.396Z,0.90
2022-12-31T02:40:45.501Z,1.20
2022-12-31T02:43:12.981Z,1.33
2022-12-31T02:45:44.117Z,1.10
2022-12-31T02:48:23.652Z,1.30
2022-12-31T02:50:59.409Z,1.30
2022-12-31T02:53:40.319Z,1.20
2022-12-31T02:56:11.394Z,1.27
2022-12-31T02:59:01.322Z,1.40
2022-12-31T03:01:51.865Z,0.83
2022-12-31T03:04:36.053Z,1.10
2022-12-31T03:07:05.075Z,1.30
2022-12-31T03:09:32.892Z,1.10
2022-12-31T03:12:18.100Z,1.10
2022-12-31T03:14:45.734Z,1.10
2022-12-31T03:17:14.605Z,1.20
2022-12-31T03:19:59.707Z,0.93
2022-12-31T03:22:30.290Z,0.70
2022-12-31T03:25:17.426Z,0.57
2022-12-31T03:27:46.417Z,0.73
2022-12-31T03:30:15.445Z,0.80
2022-12-31T03:32:45.213Z,0.60
2022-12-31T03:35:14.288Z,0.70
2022-12-31T03:37:42.588Z,0.70
2022-12-31T03:40:11.755Z,0.70
2022-12-31T03:42:39.272Z,0.60
2022-12-31T03:45:07.952Z,0.57
2022-12-31T03:47:35.622Z,0.67
2022-12-31T03:50:05.050Z,0.40
2022-12-31T03:52:32.511Z,0.40
2022-12-31T03:55:01.520Z,0.50
2022-12-31T03:57:29.407Z,0.50
2022-12-31T03:59:56.840Z,0.60
2022-12-31T04:02:28.872Z,0.40
2022-12-31T04:04:56.913Z,0.53
2022-12-31T04:07:25.822Z,0.60
2022-12-31T04:09:53.266Z,0.53
2022-12-31T04:12:20.783Z,0.60
2022-12-31T04:14:48.270Z,0.50
2022-12-31T04:17:15.773Z,0.63
2022-12-31T04:19:43.355Z,0.60
2022-12-31T04:22:11.872Z,0.70
2022-12-31T04:24:40.685Z,0.50
2022-12-31T04:27:08.289Z,0.60
2022-12-31T04:29:35.797Z,0.70
2022-12-31T04:32:04.546Z,0.67
2022-12-31T04:34:32.097Z,0.87
2022-12-31T04:36:59.611Z,0.50
2022-12-31T04:39:27.490Z,0.60
2022-12-31T04:41:56.278Z,0.47
2022-12-31T04:44:23.776Z,0.50
2022-12-31T04:46:52.311Z,0.40
2022-12-31T04:49:20.041Z,0.47
2022-12-31T04:51:48.074Z,0.40
2022-12-31T04:54:15.584Z,0.40
2022-12-31T04:56:43.049Z,0.30
2022-12-31T04:59:12.173Z,0.50
2022-12-31T05:01:40.310Z,0.40
2022-12-31T05:04:07.905Z,0.40
2022-12-31T05:06:35.451Z,0.60
2022-12-31T05:09:02.951Z,0.50
2022-12-31T05:11:30.433Z,0.40
2022-12-31T05:13:57.910Z,0.60
2022-12-31T05:16:26.756Z,0.40
2022-12-31T05:18:55.565Z,0.60
2022-12-31T05:21:23.190Z,0.40
2022-12-31T05:23:50.725Z,0.77
2022-12-31T05:26:18.699Z,0.60
2022-12-31T05:28:46.209Z,0.90
2022-12-31T05:31:13.824Z,0.70
2022-12-31T05:33:42.707Z,1.00
2022-12-31T05:36:10.292Z,0.83
2022-12-31T05:38:38.130Z,1.00
2022-12-31T05:41:08.173Z,1.00
2022-12-31T05:43:35.918Z,0.87
2022-12-31T05:46:04.793Z,0.90
2022-12-31T05:48:32.540Z,1.00
2022-12-31T05:51:01.322Z,1.20
2022-12-31T05:53:28.798Z,1.20
2022-12-31T05:55:56.284Z,1.10
2022-12-31T05:58:23.743Z,0.97
2022-12-31T06:00:52.546Z,1.10
2022-12-31T06:03:20.112Z,1.30
2022-12-31T06:05:47.671Z,1.40
2022-12-31T06:08:16.502Z,1.30
2022-12-31T06:10:43.982Z,1.37
2022-12-31T06:13:11.465Z,1.10
2022-12-31T06:15:40.333Z,1.30
2022-12-31T06:18:08.200Z,1.13
2022-12-31T06:20:37.344Z,1.00
2022-12-31T06:23:05.400Z,1.00
2022-12-31T06:25:36.878Z,1.00
2022-12-31T06:28:04.649Z,1.00
2022-12-31T06:30:32.358Z,0.90
2022-12-31T06:32:59.828Z,0.70
2022-12-31T06:35:27.294Z,0.80
2022-12-31T06:37:54.785Z,0.90
2022-12-31T06:40:22.268Z,1.00
2022-12-31T06:42:59.548Z,0.90
2022-12-31T06:45:28.143Z,0.93
2022-12-31T06:47:55.639Z,0.80
2022-12-31T06:50:23.101Z,0.70
2022-12-31T06:52:50.561Z,0.80
2022-12-31T06:55:18.653Z,0.90
2022-12-31T06:57:46.642Z,0.83
2022-12-31T07:00:16.934Z,0.80
2022-12-31T07:03:02.579Z,0.90
2022-12-31T07:05:40.338Z,0.70
2022-12-31T07:08:31.095Z,0.90
2022-12-31T07:11:03.940Z,0.93
2022-12-31T07:13:50.170Z,0.90
2022-12-31T07:16:35.628Z,1.10
2022-12-31T07:19:12.079Z,0.80
2022-12-31T07:21:41.568Z,0.90
2022-12-31T07:24:10.859Z,1.00
2022-12-31T07:26:57.211Z,0.90
2022-12-31T07:29:31.370Z,1.03
2022-12-31T07:32:05.589Z,1.00
2022-12-31T07:34:38.816Z,0.83
2022-12-31T07:37:09.194Z,0.90
2022-12-31T07:39:41.820Z,0.97
2022-12-31T07:42:15.197Z,1.13
2022-12-31T07:44:52.577Z,0.93
2022-12-31T07:47:24.124Z,0.73
2022-12-31T07:49:52.409Z,0.97
2022-12-31T07:52:21.179Z,0.87
2022-12-31T07:54:48.670Z,1.20
2022-12-31T07:57:18.484Z,1.10
2022-12-31T07:59:53.774Z,1.00
2022-12-31T08:02:35.033Z,1.10
2022-12-31T08:05:07.660Z,1.43
2022-12-31T08:07:38.295Z,1.10
2022-12-31T08:10:17.281Z,1.20
2022-12-31T08:12:46.712Z,1.40
2022-12-31T08:15:15.494Z,1.40
2022-12-31T08:17:44.920Z,1.20
2022-12-31T08:20:15.627Z,1.40
2022-12-31T08:23:08.211Z,1.20
2022-12-31T08:25:39.439Z,1.30
2022-12-31T08:28:13.111Z,1.30
2022-12-31T08:30:45.665Z,1.40
2022-12-31T08:33:20.480Z,1.20
2022-12-31T08:35:59.160Z,1.10
2022-12-31T08:38:31.800Z,1.40
2022-12-31T08:41:02.753Z,1.50
2022-12-31T08:43:50.287Z,1.50
2022-12-31T08:46:22.057Z,1.67
2022-12-31T08:51:02.416Z,1.40
2022-12-31T08:53:30.594Z,1.40
2022-12-31T08:56:03.829Z,1.60
2022-12-31T08:58:40.062Z,1.90
2022-12-31T09:01:08.295Z,1.70
2022-12-31T09:03:51.521Z,1.70
2022-12-31T09:06:26.445Z,1.47
2022-12-31T09:08:58.582Z,1.67
2022-12-31T09:11:30.880Z,1.67
2022-12-31T09:14:09.423Z,1.80
2022-12-31T09:16:46.449Z,1.60
2022-12-31T09:19:13.997Z,1.67
2022-12-31T09:21:44.268Z,2.40
2022-12-31T09:24:13.434Z,2.07
2022-12-31T09:26:47.958Z,1.80
2022-12-31T09:29:24.574Z,1.90
2022-12-31T09:31:56.533Z,2.43
2022-12-31T09:34:29.733Z,1.70
2022-12-31T09:37:02.011Z,1.60
2022-12-31T09:39:34.483Z,1.90
2022-12-31T09:42:19.608Z,2.00
2022-12-31T09:44:58.407Z,2.10
2022-12-31T09:47:50.352Z,2.10
2022-12-31T09:50:38.387Z,2.00
2022-12-31T09:53:27.417Z,2.03
2022-12-31T09:55:57.825Z,2.10
2022-12-31T09:58:39.178Z,2.03
2022-12-31T10:01:19.464Z,2.10
2022-12-31T10:04:06.062Z,1.90
2022-12-31T10:06:38.989Z,1.90
2022-12-31T10:09:18.422Z,1.80
2022-12-31T10:12:02.044Z,1.80
2022-12-31T10:14:47.223Z,1.70
2022-12-31T10:17:24.225Z,1.90
2022-12-31T10:20:10.014Z,1.73
2022-12-31T10:23:00.632Z,2.00
2022-12-31T10:25:37.905Z,2.00
2022-12-31T10:28:07.909Z,2.00
2022-12-31T10:30:36.626Z,2.00
2022-12-31T10:33:09.317Z,2.23
2022-12-31T10:35:42.011Z,2.13
2022-12-31T10:38:23.575Z,2.10
2022-12-31T10:41:25.608Z,2.00
2022-12-31T10:44:46.962Z,2.00
2022-12-31T10:48:00.347Z,2.13
2022-12-31T10:51:15.231Z,1.93
2022-12-31T10:53:56.008Z,2.00
2022-12-31T10:56:48.711Z,2.20
2022-12-31T10:59:30.531Z,1.80
2022-12-31T11:02:07.066Z,2.17
2022-12-31T11:05:24.963Z,2.40
2022-12-31T11:07:57.985Z,2.20
2022-12-31T11:10:49.759Z,2.23
2022-12-31T11:13:47.797Z,2.13
2022-12-31T11:16:30.289Z,2.03
2022-12-31T11:19:02.880Z,2.17
2022-12-31T11:26:03.014Z,2.20
2022-12-31T11:28:51.632Z,2.23
2022-12-31T11:31:33.963Z,2.40
2022-12-31T11:34:13.359Z,2.10
2022-12-31T11:36:46.109Z,2.30
2022-12-31T11:39:36.200Z,2.30
2022-12-31T11:42:13.613Z,2.43
2022-12-31T11:44:48.137Z,2.73
2022-12-31T11:47:25.268Z,2.60
2022-12-31T11:50:01.500Z,2.40
2022-12-31T11:52:44.574Z,2.23
2022-12-31T11:55:29.367Z,2.50
2022-12-31T11:58:00.435Z,2.40
2022-12-31T12:00:31.112Z,2.57
2022-12-31T12:03:00.643Z,2.40
2022-12-31T12:05:29.184Z,2.70
2022-12-31T12:07:57.226Z,2.60
2022-12-31T12:10:33.525Z,2.30
2022-12-31T12:13:12.098Z,2.70
2022-12-31T12:15:43.731Z,2.57
2022-12-31T12:18:19.426Z,2.40
2022-12-31T12:20:47.880Z,2.27
2022-12-31T12:23:18.149Z,2.50
2022-12-31T12:25:46.555Z,2.73
2022-12-31T12:28:24.608Z,2.40
2022-12-31T12:31:03.483Z,2.90
2022-12-31T12:33:41.489Z,2.63
2022-12-31T12:36:10.818Z,2.63
2022-12-31T12:38:38.743Z,2.90
2022-12-31T12:41:08.706Z,2.73
2022-12-31T12:43:37.405Z,3.00
2022-12-31T12:46:17.281Z,3.10
2022-12-31T12:48:47.758Z,2.50
2022-12-31T12:51:24.531Z,2.97
2022-12-31T12:53:58.752Z,2.63
2022-12-31T12:56:33.099Z,2.43
2022-12-31T12:59:17.271Z,2.33
2022-12-31T13:01:50.217Z,2.50
2022-12-31T13:04:38.975Z,2.70
2022-12-31T13:07:20.038Z,2.60
2022-12-31T13:09:58.013Z,2.80
2022-12-31T13:12:48.908Z,3.00
2022-12-31T13:15:23.231Z,2.80
2022-12-31T13:18:01.626Z,2.60
2022-12-31T13:20:35.535Z,2.70
2022-12-31T13:23:08.031Z,2.70
2022-12-31T13:25:40.427Z,2.60
2022-12-31T13:28:12.255Z,2.97
2022-12-31T13:30:41.678Z,3.00
2022-12-31T13:33:15.586Z,2.80
2022-12-31T13:35:46.517Z,2.70
2022-12-31T13:38:19.423Z,2.57
2022-12-31T13:40:50.771Z,3.27
2022-12-31T13:43:23.572Z,2.50
2022-12-31T13:46:00.344Z,2.50
2022-12-31T13:48:34.061Z,2.80
2022-12-31T13:51:04.467Z,3.03
2022-12-31T13:53:35.871Z,3.17
2022-12-31T13:56:06.602Z,4.10
2022-12-31T13:58:36.864Z,3.80
2022-12-31T14:01:11.991Z,3.80
2022-12-31T14:03:47.142Z,3.40
2022-12-31T14:06:20.022Z,2.70
2022-12-31T14:08:47.468Z,3.00
2022-12-31T14:11:22.046Z,2.50
2022-12-31T14:13:59.807Z,2.50
2022-12-31T14:16:34.779Z,2.60
2022-12-31T14:19:07.655Z,2.30
2022-12-31T14:21:40.728Z,1.90
2022-12-31T14:24:14.712Z,2.10
2022-12-31T14:26:45.176Z,2.20
2022-12-31T14:29:22.253Z,2.30
2022-12-31T14:32:32.609Z,2.10
2022-12-31T14:35:13.667Z,2.20
2022-12-31T14:37:47.982Z,2.37
2022-12-31T14:40:20.501Z,2.27
2022-12-31T14:42:56.796Z,2.17
2022-12-31T14:45:31.536Z,2.07
2022-12-31T14:48:03.018Z,2.20
2022-12-31T14:50:33.816Z,2.10
2022-12-31T14:53:09.388Z,2.20
2022-12-31T14:55:37.698Z,1.80
2022-12-31T14:58:29.392Z,2.10
2022-12-31T15:00:58.507Z,1.90
2022-12-31T15:03:34.164Z,2.07
2022-12-31T15:06:14.278Z,2.00
2022-12-31T15:08:50.555Z,2.10
2022-12-31T15:11:34.239Z,1.90
2022-12-31T15:14:24.432Z,2.40
2022-12-31T15:16:57.004Z,2.07
2022-12-31T15:19:57.874Z,2.10
2022-12-31T15:22:38.348Z,2.00
2022-12-31T15:25:21.184Z,2.43
2022-12-31T15:27:49.398Z,2.17
2022-12-31T15:30:34.063Z,2.03
2022-12-31T15:33:04.536Z,2.07
2022-12-31T15:35:34.890Z,2.17
2022-12-31T15:38:17.729Z,1.87
2022-12-31T15:40:46.507Z,2.13
2022-12-31T15:43:16.290Z,2.30
2022-12-31T15:45:44.167Z,2.03
2022-12-31T15:48:16.524Z,2.17
2022-12-31T15:50:44.252Z,2.20
2022-12-31T15:53:24.007Z,2.10
2022-12-31T15:55:53.976Z,2.50
2022-12-31T15:58:24.466Z,2.30
2022-12-31T16:00:59.305Z,2.27
2022-12-31T16:03:29.181Z,2.43
2022-12-31T16:06:01.826Z,2.40
2022-12-31T16:08:34.765Z,2.77
2022-12-31T16:11:05.213Z,2.53
2022-12-31T16:13:34.863Z,2.40
2022-12-31T16:16:05.070Z,2.60
2022-12-31T16:18:39.463Z,2.30
2022-12-31T16:21:07.419Z,2.40
2022-12-31T16:23:42.173Z,2.40
2022-12-31T16:26:11.161Z,2.50
2022-12-31T16:28:38.728Z,2.50
2022-12-31T16:31:08.261Z,2.50
2022-12-31T16:33:36.033Z,2.10
2022-12-31T16:36:05.057Z,2.60
2022-12-31T16:38:33.653Z,2.20
2022-12-31T16:41:17.484Z,2.67
2022-12-31T16:43:45.831Z,2.13
2022-12-31T16:46:18.541Z,2.20
2022-12-31T16:48:47.371Z,2.50
2022-12-31T16:51:19.528Z,2.20
2022-12-31T16:53:47.666Z,2.33
2022-12-31T16:56:24.835Z,2.60
2022-12-31T16:58:56.965Z,2.40
2022-12-31T17:01:26.900Z,2.40
2022-12-31T17:03:56.481Z,2.33
2022-12-31T17:06:24.150Z,2.63
2022-12-31T17:09:06.075Z,2.27
2022-12-31T17:11:39.073Z,2.40
2022-12-31T17:14:14.490Z,2.70
2022-12-31T17:16:59.548Z,2.67
2022-12-31T17:19:36.521Z,2.80
2022-12-31T17:22:04.602Z,2.70
2022-12-31T17:24:32.340Z,2.77
2022-12-31T17:27:06.840Z,2.70
2022-12-31T17:29:34.475Z,2.60
2022-12-31T17:32:04.543Z,3.03
2022-12-31T17:34:34.712Z,3.70
2022-12-31T17:37:17.710Z,3.30
2022-12-31T17:39:50.660Z,2.83
2022-12-31T17:42:30.224Z,3.00
2022-12-31T17:45:00.761Z,3.30
2022-12-31T17:47:34.682Z,3.20
2022-12-31T17:50:10.441Z,3.13
2022-12-31T17:52:37.930Z,3.23
2022-12-31T17:55:06.244Z,3.50
2022-12-31T17:57:36.094Z,3.10
2022-12-31T18:00:05.932Z,3.43
2022-12-31T18:02:40.048Z,3.23
2022-12-31T18:05:14.785Z,3.60
2022-12-31T18:07:42.197Z,3.30
2022-12-31T18:10:09.848Z,4.93
2022-12-31T18:12:38.654Z,3.70
2022-12-31T18:15:07.281Z,3.70
2022-12-31T18:17:35.573Z,3.10
2022-12-31T18:20:05.103Z,3.90
2022-12-31T18:22:33.414Z,3.73
2022-12-31T18:25:00.866Z,3.60
2022-12-31T18:27:31.350Z,4.27
2022-12-31T18:30:06.463Z,3.87
2022-12-31T18:32:36.073Z,4.30
2022-12-31T18:35:04.005Z,3.70
2022-12-31T18:37:37.594Z,4.03
2022-12-31T18:40:05.952Z,3.97
2022-12-31T18:42:33.521Z,4.20
2022-12-31T18:45:02.439Z,4.00
2022-12-31T18:47:35.803Z,4.17
2022-12-31T18:50:05.840Z,3.80
2022-12-31T18:52:33.424Z,3.90
2022-12-31T18:55:00.957Z,4.00
2022-12-31T18:57:30.535Z,4.07
2022-12-31T18:59:58.580Z,4.00
2022-12-31T19:02:27.501Z,4.00
2022-12-31T19:04:55.009Z,3.70
2022-12-31T19:07:22.463Z,4.50
2022-12-31T19:09:54.656Z,4.30
2022-12-31T19:12:24.437Z,4.47
2022-12-31T19:14:51.890Z,4.33
2022-12-31T19:17:21.362Z,4.27
2022-12-31T19:19:50.229Z,4.37
2022-12-31T19:22:17.736Z,4.23
2022-12-31T19:24:45.224Z,4.30
2022-12-31T19:27:16.913Z,4.40
2022-12-31T19:29:44.381Z,4.80
2022-12-31T19:32:11.993Z,4.33
2022-12-31T19:34:39.495Z,4.60
2022-12-31T19:37:08.307Z,4.40
2022-12-31T19:39:35.783Z,4.20
2022-12-31T19:42:03.207Z,4.50
2022-12-31T19:44:30.668Z,4.93
2022-12-31T19:46:58.192Z,4.70
2022-12-31T19:49:25.714Z,4.60
2022-12-31T19:51:53.155Z,6.00
2022-12-31T19:54:22.720Z,4.70
2022-12-31T19:56:50.199Z,4.80
2022-12-31T19:59:17.679Z,4.73
2022-12-31T20:01:45.205Z,4.43
2022-12-31T20:04:12.806Z,4.63
2022-12-31T20:06:40.216Z,4.60
2022-12-31T20:09:07.905Z,4.57
2022-12-31T20:11:36.691Z,4.53
2022-12-31T20:14:04.154Z,4.60
2022-12-31T20:16:33.625Z,4.77
2022-12-31T20:19:01.125Z,5.00
2022-12-31T20:21:30.014Z,4.80
2022-12-31T20:23:58.417Z,4.97
2022-12-31T20:26:26.387Z,4.90
2022-12-31T20:28:55.384Z,5.20
2022-12-31T20:31:25.587Z,4.77
2022-12-31T20:33:54.016Z,4.97
2022-12-31T20:36:21.552Z,4.80
2022-12-31T20:38:49.355Z,4.93
2022-12-31T20:41:18.430Z,4.80
2022-12-31T20:43:46.270Z,5.23
2022-12-31T20:46:17.922Z,5.10
2022-12-31T20:48:46.269Z,4.87
2022-12-31T20:51:14.923Z,5.17
2022-12-31T20:53:46.769Z,5.53
2022-12-31T20:56:14.464Z,5.30
2022-12-31T20:58:41.985Z,5.67
2022-12-31T21:01:10.792Z,4.80
2022-12-31T21:06:29.869Z,5.20
2022-12-31T21:08:58.957Z,5.47
2022-12-31T21:11:44.243Z,5.37
2022-12-31T21:14:11.758Z,6.07
2022-12-31T21:16:39.252Z,5.67
2022-12-31T21:19:08.189Z,5.30
2022-12-31T21:21:35.665Z,5.13
2022-12-31T21:24:03.348Z,5.73
2022-12-31T21:26:31.383Z,5.70
2022-12-31T21:28:59.220Z,5.30
2022-12-31T21:31:26.752Z,5.30
2022-12-31T21:33:54.353Z,5.40
2022-12-31T21:36:23.170Z,5.40
2022-12-31T21:38:50.658Z,5.83
2022-12-31T21:41:35.678Z,5.63
2022-12-31T21:44:03.456Z,5.90
2022-12-31T21:46:31.403Z,5.50
2022-12-31T21:49:00.463Z,5.50
2022-12-31T21:51:29.964Z,6.03
2022-12-31T21:53:57.833Z,5.80
2022-12-31T21:56:24.452Z,5.80
2022-12-31T21:59:08.665Z,5.87
2022-12-31T22:01:53.916Z,5.50
2022-12-31T22:04:59.913Z,5.70
2022-12-31T22:07:10.494Z,6.00
2022-12-31T22:09:37.993Z,5.60
2022-12-31T22:12:06.177Z,5.80
2022-12-31T22:14:33.666Z,5.70
2022-12-31T22:17:01.113Z,5.80
2022-12-31T22:19:28.605Z,5.90
2022-12-31T22:21:56.053Z,5.40
2022-12-31T22:24:24.820Z,5.20
2022-12-31T22:26:55.400Z,5.50
2022-12-31T22:29:23.515Z,5.13
2022-12-31T22:31:51.001Z,5.03
2022-12-31T22:34:18.723Z,4.70
2022-12-31T22:36:46.239Z,4.70
2022-12-31T22:39:43.847Z,4.53
2022-12-31T22:42:04.679Z,4.73
2022-12-31T22:44:32.231Z,4.47
2022-12-31T22:46:59.780Z,4.33
2022-12-31T22:49:27.473Z,4.33
2022-12-31T22:51:59.717Z,4.60
2022-12-31T22:54:29.330Z,4.67
2022-12-31T22:56:56.859Z,4.50
2022-12-31T22:59:25.758Z,4.83
2022-12-31T23:01:53.350Z,5.17
2022-12-31T23:04:20.975Z,14.83
2022-12-31T23:06:48.487Z,11.10
2022-12-31T23:09:35.119Z,13.77
2022-12-31T23:12:03.191Z,9.13
2022-12-31T23:14:49.806Z,9.17
2022-12-31T23:17:38.454Z,10.67
2022-12-31T23:20:24.723Z,11.40
2022-12-31T23:23:08.813Z,8.97
2022-12-31T23:25:37.773Z,8.17
2022-12-31T23:28:06.134Z,8.43
2022-12-31T23:30:35.076Z,7.23
2022-12-31T23:33:02.546Z,8.20
2022-12-31T23:35:30.041Z,7.53
2022-12-31T23:37:57.622Z,10.70
2022-12-31T23:40:33.996Z,8.60
2022-12-31T23:43:03.039Z,7.87
2022-12-31T23:45:33.321Z,8.10
2022-12-31T23:48:02.416Z,7.70
2022-12-31T23:50:30.064Z,7.23
2022-12-31T23:52:57.710Z,7.10
2022-12-31T23:55:25.256Z,7.07
2022-12-31T23:57:52.786Z,6.83
